createdAt,value
2023-05-09T00:01:10.949Z,12.87
2023-05-09T00:03:12.802Z,12.85
2023-05-09T00:05:15.158Z,12.82
2023-05-09T00:07:17.312Z,12.79
2023-05-09T00:09:19.013Z,12.76
2023-05-09T00:11:22.142Z,12.73
2023-05-09T00:13:24.423Z,12.71
2023-05-09T00:15:26.036Z,12.68
2023-05-09T00:17:28.613Z,12.65
2023-05-09T00:19:30.195Z,12.63
2023-05-09T00:21:31.751Z,12.60
2023-05-09T00:23:33.222Z,12.57
2023-05-09T00:25:34.710Z,12.55
2023-05-09T00:27:36.437Z,12.51
2023-05-09T00:29:37.959Z,12.49
2023-05-09T00:31:39.458Z,12.46
2023-05-09T00:33:40.950Z,12.44
2023-05-09T00:35:42.453Z,12.42
2023-05-09T00:37:43.972Z,12.38
2023-05-09T00:39:46.171Z,12.36
2023-05-09T00:41:47.672Z,12.33
2023-05-09T00:43:49.138Z,12.31
2023-05-09T00:45:50.834Z,12.27
2023-05-09T00:47:52.714Z,12.25
2023-05-09T00:49:54.695Z,12.23
2023-05-09T00:51:56.962Z,12.20
2023-05-09T00:53:58.764Z,12.19
2023-05-09T00:56:00.497Z,12.16
2023-05-09T00:58:03.741Z,12.15
2023-05-09T01:00:06.216Z,12.12
2023-05-09T01:02:07.692Z,12.10
2023-05-09T01:04:09.697Z,12.08
2023-05-09T01:06:11.133Z,12.04
2023-05-09T01:09:11.949Z,12.02
2023-05-09T01:11:26.662Z,11.99
2023-05-09T01:13:36.306Z,11.95
2023-05-09T01:15:54.662Z,11.93
2023-05-09T01:18:14.671Z,11.90
2023-05-09T01:20:25.155Z,11.86
2023-05-09T01:22:31.895Z,11.83
2023-05-09T01:24:57.381Z,11.81
2023-05-09T01:27:39.220Z,11.81
2023-05-09T01:29:47.166Z,11.78
2023-05-09T01:31:49.629Z,11.76
2023-05-09T01:33:56.476Z,11.75
2023-05-09T01:36:09.513Z,11.72
2023-05-09T01:38:17.263Z,11.69
2023-05-09T01:40:21.420Z,11.68
2023-05-09T01:42:25.972Z,11.64
2023-05-09T01:44:35.393Z,11.63
2023-05-09T01:46:38.025Z,11.61
2023-05-09T01:48:41.136Z,11.58
2023-05-09T01:50:44.482Z,11.54
2023-05-09T01:52:49.353Z,11.52
2023-05-09T01:54:51.498Z,11.51
2023-05-09T01:56:55.600Z,11.49
2023-05-09T01:58:58.622Z,11.47
2023-05-09T02:01:00.997Z,11.45
2023-05-09T02:03:04.303Z,11.44
2023-05-09T02:05:06.683Z,11.43
2023-05-09T02:07:08.694Z,11.41
2023-05-09T02:09:11.361Z,11.37
2023-05-09T02:11:13.067Z,11.34
2023-05-09T02:13:14.824Z,11.32
2023-05-09T02:15:16.857Z,11.29
2023-05-09T02:17:19.290Z,11.27
2023-05-09T02:19:20.762Z,11.26
2023-05-09T02:21:22.439Z,11.21
2023-05-09T02:23:23.887Z,11.20
2023-05-09T02:25:25.546Z,11.18
2023-05-09T02:27:27.703Z,11.16
2023-05-09T02:29:40.033Z,11.13
2023-05-09T02:31:43.230Z,11.10
2023-05-09T02:33:47.845Z,11.08
2023-05-09T02:35:50.031Z,11.05
2023-05-09T02:37:52.197Z,11.02
2023-05-09T02:39:55.014Z,11.00
2023-05-09T02:41:56.797Z,10.98
2023-05-09T02:43:58.257Z,10.94
2023-05-09T02:45:59.731Z,10.93
2023-05-09T02:48:01.288Z,10.91
2023-05-09T02:50:02.838Z,10.89
2023-05-09T02:52:04.769Z,10.88
2023-05-09T02:54:06.415Z,10.86
2023-05-09T02:56:08.810Z,10.85
2023-05-09T02:58:14.778Z,10.84
2023-05-09T03:00:18.022Z,10.78
2023-05-09T03:02:19.581Z,10.76
2023-05-09T03:04:21.138Z,10.75
2023-05-09T03:06:22.595Z,10.73
2023-05-09T03:08:24.074Z,10.71
2023-05-09T03:10:25.616Z,10.68
2023-05-09T03:12:27.076Z,10.67
2023-05-09T03:14:28.537Z,10.67
2023-05-09T03:16:30.279Z,10.64
2023-05-09T03:18:31.842Z,10.64
2023-05-09T03:20:33.317Z,10.63
2023-05-09T03:22:34.760Z,10.61
2023-05-09T03:24:36.935Z,10.57
2023-05-09T03:26:38.499Z,10.56
2023-05-09T03:28:40.564Z,10.57
2023-05-09T03:30:42.015Z,10.55
2023-05-09T03:32:43.548Z,10.55
2023-05-09T03:34:45.022Z,10.51
2023-05-09T03:36:46.551Z,10.51
2023-05-09T03:38:48.070Z,10.50
2023-05-09T03:40:50.056Z,10.48
2023-05-09T03:42:51.586Z,10.49
2023-05-09T03:44:53.164Z,10.47
2023-05-09T03:46:54.689Z,10.48
2023-05-09T03:48:56.223Z,10.49
2023-05-09T03:50:57.765Z,10.50
2023-05-09T03:52:59.413Z,10.49
2023-05-09T03:55:00.905Z,10.49
2023-05-09T03:57:02.418Z,10.49
2023-05-09T03:59:03.885Z,10.49
2023-05-09T04:01:05.769Z,10.50
2023-05-09T04:03:07.460Z,10.51
2023-05-09T04:05:09.174Z,10.52
2023-05-09T04:07:10.810Z,10.53
2023-05-09T04:09:12.303Z,10.54
2023-05-09T04:11:13.891Z,10.56
2023-05-09T04:13:15.465Z,10.55
2023-05-09T04:15:17.533Z,10.54
2023-05-09T04:17:19.045Z,10.55
2023-05-09T04:19:20.614Z,10.57
2023-05-09T04:21:22.134Z,10.57
2023-05-09T04:23:23.932Z,10.59
2023-05-09T04:25:26.019Z,10.60
2023-05-09T04:27:28.161Z,10.66
2023-05-09T04:29:29.653Z,10.70
2023-05-09T04:31:31.664Z,10.79
2023-05-09T04:33:33.243Z,10.89
2023-05-09T04:35:34.745Z,10.99
2023-05-09T04:37:36.205Z,11.06
2023-05-09T04:39:37.657Z,11.16
2023-05-09T04:41:39.138Z,11.27
2023-05-09T04:43:40.614Z,11.35
2023-05-09T04:45:42.101Z,11.44
2023-05-09T04:47:44.049Z,11.51
2023-05-09T04:49:45.546Z,11.57
2023-05-09T04:51:47.001Z,11.63
2023-05-09T04:53:48.494Z,11.71
2023-05-09T04:55:49.972Z,11.77
2023-05-09T04:57:51.398Z,11.85
2023-05-09T04:59:53.109Z,11.88
2023-05-09T05:01:54.674Z,11.93
2023-05-09T05:03:56.297Z,11.96
2023-05-09T05:05:58.382Z,12.00
2023-05-09T05:07:59.857Z,12.08
2023-05-09T05:10:01.387Z,12.18
2023-05-09T05:12:04.929Z,12.24
2023-05-09T05:14:07.510Z,12.31
2023-05-09T05:16:09.135Z,12.36
2023-05-09T05:18:10.713Z,12.40
2023-05-09T05:20:12.401Z,12.32
2023-05-09T05:22:13.837Z,12.24
2023-05-09T05:24:15.289Z,12.14
2023-05-09T05:26:16.727Z,12.10
2023-05-09T05:28:19.680Z,12.09
2023-05-09T05:30:21.278Z,12.15
2023-05-09T05:32:22.778Z,12.19
2023-05-09T05:34:24.209Z,12.24
2023-05-09T05:36:25.846Z,12.27
2023-05-09T05:38:27.295Z,12.35
2023-05-09T05:40:28.769Z,12.40
2023-05-09T05:42:30.782Z,12.50
2023-05-09T05:44:32.237Z,12.60
2023-05-09T05:46:33.696Z,12.68
2023-05-09T05:48:35.240Z,12.73
2023-05-09T05:50:36.745Z,12.81
2023-05-09T05:52:39.744Z,12.87
2023-05-09T05:54:41.458Z,12.90
2023-05-09T05:56:43.164Z,12.93
2023-05-09T05:58:44.634Z,12.97
2023-05-09T06:00:46.557Z,13.03
2023-05-09T06:02:48.259Z,13.10
2023-05-09T06:04:49.860Z,13.13
2023-05-09T06:06:51.389Z,13.13
2023-05-09T06:08:52.848Z,13.14
2023-05-09T06:10:54.320Z,13.22
2023-05-09T06:12:55.891Z,13.28
2023-05-09T06:14:57.447Z,13.34
2023-05-09T06:16:59.748Z,13.43
2023-05-09T06:19:01.320Z,13.50
2023-05-09T06:21:02.930Z,13.57
2023-05-09T06:23:04.532Z,13.63
2023-05-09T06:25:08.616Z,13.72
2023-05-09T06:27:11.737Z,13.77
2023-05-09T06:29:15.171Z,13.75
2023-05-09T06:31:16.742Z,13.79
2023-05-09T06:33:18.239Z,13.89
2023-05-09T06:35:19.698Z,13.96
2023-05-09T06:37:21.302Z,14.02
2023-05-09T06:39:22.800Z,14.11
2023-05-09T06:41:24.285Z,14.19
2023-05-09T06:43:26.388Z,14.24
2023-05-09T06:45:28.011Z,14.31
2023-05-09T06:47:29.495Z,14.39
2023-05-09T06:49:31.083Z,14.47
2023-05-09T06:51:32.751Z,14.50
2023-05-09T06:53:34.378Z,14.56
2023-05-09T06:55:36.167Z,14.61
2023-05-09T06:57:39.486Z,14.70
2023-05-09T06:59:40.953Z,14.80
2023-05-09T07:01:42.568Z,14.90
2023-05-09T07:03:44.436Z,14.97
2023-05-09T07:05:45.987Z,15.05
2023-05-09T07:07:47.513Z,15.17
2023-05-09T07:09:50.850Z,15.25
2023-05-09T07:11:57.653Z,15.37
2023-05-09T07:13:59.137Z,15.43
2023-05-09T07:16:00.697Z,15.48
2023-05-09T07:18:02.283Z,15.57
2023-05-09T07:20:04.906Z,15.65
2023-05-09T07:22:06.397Z,15.73
2023-05-09T07:24:07.933Z,15.76
2023-05-09T07:26:09.395Z,15.83
2023-05-09T07:28:12.673Z,15.83
2023-05-09T07:30:14.648Z,15.85
2023-05-09T07:32:16.309Z,15.92
2023-05-09T07:34:19.854Z,16.02
2023-05-09T07:36:21.366Z,16.14
2023-05-09T07:38:22.918Z,16.24
2023-05-09T07:40:24.348Z,16.37
2023-05-09T07:42:26.428Z,16.48
2023-05-09T07:44:27.945Z,16.50
2023-05-09T07:46:29.454Z,16.57
2023-05-09T07:48:31.013Z,16.60
2023-05-09T07:50:32.535Z,16.72
2023-05-09T07:52:34.129Z,16.84
2023-05-09T07:54:35.580Z,16.87
2023-05-09T07:56:37.095Z,16.84
2023-05-09T07:58:38.578Z,16.86
2023-05-09T08:00:40.750Z,16.97
2023-05-09T08:02:42.345Z,17.06
2023-05-09T08:04:43.970Z,17.13
2023-05-09T08:06:45.476Z,17.17
2023-05-09T08:08:47.017Z,17.24
2023-05-09T08:10:48.541Z,17.28
2023-05-09T08:12:50.078Z,17.23
2023-05-09T08:14:51.584Z,17.22
2023-05-09T08:16:53.124Z,17.25
2023-05-09T08:18:54.968Z,17.35
2023-05-09T08:20:56.645Z,17.44
2023-05-09T08:22:58.255Z,17.51
2023-05-09T08:24:59.823Z,17.56
2023-05-09T08:27:01.491Z,17.58
2023-05-09T08:29:02.997Z,17.51
2023-05-09T08:31:04.533Z,17.45
2023-05-09T08:33:06.154Z,17.40
2023-05-09T08:35:09.012Z,17.39
2023-05-09T08:37:11.501Z,17.43
2023-05-09T08:39:14.332Z,17.48
2023-05-09T08:41:16.393Z,17.53
2023-05-09T08:43:19.264Z,17.56
2023-05-09T08:45:27.526Z,17.65
2023-05-09T08:47:29.818Z,17.72
2023-05-09T08:49:31.747Z,17.72
2023-05-09T08:51:33.462Z,17.77
2023-05-09T08:53:34.968Z,17.82
2023-05-09T08:55:37.293Z,17.91
2023-05-09T08:57:38.756Z,18.05
2023-05-09T08:59:42.154Z,18.17
2023-05-09T09:01:43.817Z,18.30
2023-05-09T09:03:49.375Z,18.42
2023-05-09T09:05:53.264Z,18.53
2023-05-09T09:07:55.444Z,18.61
2023-05-09T09:09:58.750Z,18.68
2023-05-09T09:12:00.913Z,18.76
2023-05-09T09:14:10.084Z,18.86
2023-05-09T09:16:19.839Z,18.98
2023-05-09T09:18:24.041Z,19.06
2023-05-09T09:20:31.400Z,19.09
2023-05-09T09:22:34.938Z,19.17
2023-05-09T09:24:36.744Z,19.26
2023-05-09T09:26:46.609Z,19.29
2023-05-09T09:28:48.101Z,19.35
2023-05-09T09:30:49.787Z,19.38
2023-05-09T09:32:51.290Z,19.45
2023-05-09T09:35:06.975Z,19.55
2023-05-09T09:37:08.435Z,19.58
2023-05-09T09:39:13.237Z,19.63
2023-05-09T09:41:15.287Z,19.69
2023-05-09T09:43:16.756Z,19.77
2023-05-09T09:45:20.328Z,19.85
2023-05-09T09:47:31.588Z,19.99
2023-05-09T09:49:33.059Z,20.01
2023-05-09T09:51:35.602Z,19.96
2023-05-09T09:53:41.398Z,20.01
2023-05-09T09:55:50.797Z,20.17
2023-05-09T09:57:52.417Z,20.33
2023-05-09T10:00:00.767Z,20.32
2023-05-09T10:02:07.507Z,20.36
2023-05-09T10:04:16.468Z,20.42
2023-05-09T10:06:18.237Z,20.52
2023-05-09T10:08:19.902Z,20.67
2023-05-09T10:10:21.894Z,20.80
2023-05-09T10:12:23.512Z,20.86
2023-05-09T10:14:26.284Z,20.95
2023-05-09T10:16:42.589Z,20.99
2023-05-09T10:18:45.200Z,21.08
2023-05-09T10:20:47.291Z,21.15
2023-05-09T10:22:50.456Z,21.27
2023-05-09T10:25:06.419Z,21.52
2023-05-09T10:27:11.732Z,21.63
2023-05-09T10:29:22.755Z,21.69
2023-05-09T10:31:27.290Z,21.61
2023-05-09T10:33:46.756Z,21.58
2023-05-09T10:35:49.731Z,21.63
2023-05-09T10:37:55.209Z,21.78
2023-05-09T10:39:57.057Z,21.98
2023-05-09T10:41:59.222Z,22.14
2023-05-09T10:44:00.869Z,22.33
2023-05-09T10:46:06.361Z,22.57
2023-05-09T10:48:09.278Z,22.84
2023-05-09T10:50:15.658Z,23.04
2023-05-09T10:52:17.380Z,23.20
2023-05-09T10:54:31.004Z,23.25
2023-05-09T10:56:36.207Z,23.37
2023-05-09T10:58:39.112Z,23.39
2023-05-09T11:00:42.383Z,23.34
2023-05-09T11:03:07.939Z,23.56
2023-05-09T11:05:19.651Z,23.69
2023-05-09T11:07:25.739Z,23.99
2023-05-09T11:09:33.200Z,24.28
2023-05-09T11:11:50.755Z,24.55
2023-05-09T11:13:57.942Z,24.60
2023-05-09T11:15:59.452Z,24.47
2023-05-09T11:18:09.371Z,24.03
2023-05-09T11:20:10.941Z,23.61
2023-05-09T11:22:14.212Z,23.43
2023-05-09T11:24:18.974Z,23.18
2023-05-09T11:26:23.429Z,23.12
2023-05-09T11:28:36.519Z,23.08
2023-05-09T11:30:43.362Z,22.81
2023-05-09T11:32:46.323Z,22.71
2023-05-09T11:34:49.780Z,22.60
2023-05-09T11:36:51.447Z,22.54
2023-05-09T11:39:07.702Z,22.60
2023-05-09T11:41:09.393Z,22.62
2023-05-09T11:43:11.005Z,22.52
2023-05-09T11:45:13.617Z,22.51
2023-05-09T11:47:16.449Z,22.47
2023-05-09T11:49:19.579Z,22.58
2023-05-09T11:51:21.198Z,22.54
2023-05-09T11:53:23.049Z,22.59
2023-05-09T11:55:30.086Z,22.61
2023-05-09T11:57:32.369Z,22.65
2023-05-09T11:59:38.393Z,22.76
2023-05-09T12:01:39.968Z,22.85
2023-05-09T12:03:45.140Z,23.00
2023-05-09T12:05:48.531Z,23.08
2023-05-09T12:07:50.768Z,23.24
2023-05-09T12:09:52.369Z,23.40
2023-05-09T12:11:53.837Z,23.35
2023-05-09T12:13:55.409Z,23.36
2023-05-09T12:16:03.188Z,23.27
2023-05-09T12:18:06.697Z,23.33
2023-05-09T12:20:09.376Z,23.32
2023-05-09T12:22:11.215Z,23.23
2023-05-09T12:24:12.684Z,23.03
2023-05-09T12:26:14.595Z,22.92
2023-05-09T12:28:16.830Z,22.94
2023-05-09T12:30:18.691Z,23.00
2023-05-09T12:32:20.819Z,23.04
2023-05-09T12:34:23.082Z,23.13
2023-05-09T12:36:24.642Z,23.18
2023-05-09T12:38:26.097Z,23.19
2023-05-09T12:40:27.856Z,23.25
2023-05-09T12:42:29.810Z,23.37
2023-05-09T12:44:31.433Z,23.38
2023-05-09T12:46:33.508Z,23.48
2023-05-09T12:48:38.684Z,23.37
2023-05-09T12:50:40.749Z,23.34
2023-05-09T12:53:02.161Z,23.33
2023-05-09T12:55:14.251Z,23.28
2023-05-09T12:57:23.336Z,23.49
2023-05-09T12:59:27.007Z,23.62
2023-05-09T13:01:29.603Z,23.60
2023-05-09T13:03:37.770Z,23.43
2023-05-09T13:05:39.348Z,23.25
2023-05-09T13:07:43.118Z,23.10
2023-05-09T13:09:56.999Z,23.07
2023-05-09T13:11:58.615Z,23.18
2023-05-09T13:14:00.375Z,23.26
2023-05-09T13:16:03.812Z,23.31
2023-05-09T13:18:05.563Z,23.25
2023-05-09T13:20:08.559Z,23.22
2023-05-09T13:22:12.133Z,23.19
2023-05-09T13:24:13.832Z,23.26
2023-05-09T13:26:15.966Z,23.30
2023-05-09T13:28:17.530Z,23.41
2023-05-09T13:30:19.562Z,23.56
2023-05-09T13:32:21.311Z,23.65
2023-05-09T13:34:22.867Z,23.68
2023-05-09T13:36:24.405Z,23.67
2023-05-09T13:38:25.951Z,23.61
2023-05-09T13:40:27.398Z,23.55
2023-05-09T13:42:28.993Z,23.42
2023-05-09T13:44:30.680Z,23.43
2023-05-09T13:46:32.285Z,23.41
2023-05-09T13:48:33.816Z,23.49
2023-05-09T13:50:35.257Z,23.61
2023-05-09T13:52:36.747Z,23.82
2023-05-09T13:54:38.277Z,23.97
2023-05-09T13:56:39.817Z,24.01
2023-05-09T13:58:41.362Z,24.03
2023-05-09T14:00:42.890Z,24.16
2023-05-09T14:02:44.345Z,24.28
2023-05-09T14:04:45.911Z,24.28
2023-05-09T14:06:48.296Z,24.03
2023-05-09T14:08:49.895Z,23.73
2023-05-09T14:10:51.425Z,23.54
2023-05-09T14:12:53.498Z,23.39
2023-05-09T14:14:54.983Z,23.24
2023-05-09T14:16:57.145Z,23.21
2023-05-09T14:18:58.643Z,23.19
2023-05-09T14:21:00.109Z,23.09
2023-05-09T14:23:01.649Z,22.95
2023-05-09T14:25:03.229Z,22.88
2023-05-09T14:27:04.762Z,22.95
2023-05-09T14:29:06.784Z,22.90
2023-05-09T14:31:08.225Z,22.85
2023-05-09T14:33:09.754Z,22.80
2023-05-09T14:35:11.344Z,22.77
2023-05-09T14:37:15.780Z,22.77
2023-05-09T14:39:17.350Z,22.74
2023-05-09T14:41:20.895Z,22.69
2023-05-09T14:43:22.973Z,22.66
2023-05-09T14:45:25.119Z,22.60
2023-05-09T14:47:26.797Z,22.55
2023-05-09T14:49:28.633Z,22.53
2023-05-09T14:51:31.729Z,22.51
2023-05-09T14:53:35.487Z,22.54
2023-05-09T14:55:37.231Z,22.58
2023-05-09T14:57:38.663Z,22.73
2023-05-09T14:59:40.152Z,22.91
2023-05-09T15:01:41.834Z,23.05
2023-05-09T15:03:43.472Z,23.21
2023-05-09T15:05:45.066Z,23.25
2023-05-09T15:07:46.538Z,23.23
2023-05-09T15:09:47.986Z,23.24
2023-05-09T15:11:49.590Z,23.19
2023-05-09T15:13:53.284Z,23.17
2023-05-09T15:15:54.743Z,23.15
2023-05-09T15:17:56.260Z,23.18
2023-05-09T15:19:57.726Z,23.11
2023-05-09T15:21:59.938Z,23.10
2023-05-09T15:24:02.470Z,23.12
2023-05-09T15:26:04.177Z,23.13
2023-05-09T15:28:06.898Z,23.16
2023-05-09T15:30:09.972Z,23.06
2023-05-09T15:32:11.480Z,23.06
2023-05-09T15:34:13.044Z,23.01
2023-05-09T15:36:14.582Z,23.01
2023-05-09T15:38:16.113Z,22.99
2023-05-09T15:40:17.777Z,22.92
2023-05-09T15:42:19.531Z,22.84
2023-05-09T15:44:20.988Z,22.76
2023-05-09T15:46:22.551Z,22.69
2023-05-09T15:48:24.805Z,22.62
2023-05-09T15:50:26.711Z,22.55
2023-05-09T15:52:28.242Z,22.47
2023-05-09T15:54:31.746Z,22.38
2023-05-09T15:56:33.305Z,22.38
2023-05-09T15:58:35.122Z,22.35
2023-05-09T16:00:37.535Z,22.34
2023-05-09T16:02:39.263Z,22.36
2023-05-09T16:04:42.403Z,22.39
2023-05-09T16:06:44.548Z,22.36
2023-05-09T16:08:46.455Z,22.35
2023-05-09T16:10:49.090Z,22.37
2023-05-09T16:12:50.751Z,22.34
2023-05-09T16:14:52.319Z,22.32
2023-05-09T16:16:53.879Z,22.30
2023-05-09T16:18:55.560Z,22.29
2023-05-09T16:20:57.070Z,22.27
2023-05-09T16:22:58.556Z,22.25
2023-05-09T16:25:00.035Z,22.23
2023-05-09T16:27:01.493Z,22.24
2023-05-09T16:29:03.072Z,22.23
2023-05-09T16:31:05.075Z,22.20
2023-05-09T16:33:06.649Z,22.17
2023-05-09T16:35:08.609Z,22.18
2023-05-09T16:37:10.162Z,22.11
2023-05-09T16:39:11.735Z,22.07
2023-05-09T16:41:13.218Z,22.04
2023-05-09T16:43:16.396Z,22.03
2023-05-09T16:45:17.872Z,22.00
2023-05-09T16:47:19.359Z,21.90
2023-05-09T16:49:21.018Z,21.82
2023-05-09T16:51:22.496Z,21.83
2023-05-09T16:53:25.420Z,21.77
2023-05-09T16:55:28.715Z,21.73
2023-05-09T16:57:30.161Z,21.66
2023-05-09T16:59:32.798Z,21.58
2023-05-09T17:01:34.348Z,21.44
2023-05-09T17:03:35.838Z,21.36
2023-05-09T17:05:37.284Z,21.30
2023-05-09T17:07:38.731Z,21.25
2023-05-09T17:09:40.345Z,21.14
2023-05-09T17:11:41.789Z,21.01
2023-05-09T17:13:44.058Z,20.87
2023-05-09T17:15:45.636Z,20.72
2023-05-09T17:17:47.423Z,20.56
2023-05-09T17:19:48.905Z,20.48
2023-05-09T17:21:50.683Z,20.40
2023-05-09T17:23:53.907Z,20.40
2023-05-09T17:25:55.361Z,20.39
2023-05-09T17:27:56.874Z,20.34
2023-05-09T17:29:58.515Z,20.31
2023-05-09T17:32:02.957Z,20.25
2023-05-09T17:34:05.515Z,20.28
2023-05-09T17:36:07.425Z,20.22
2023-05-09T17:38:08.980Z,20.11
2023-05-09T17:40:10.735Z,19.98
2023-05-09T17:42:12.818Z,19.87
2023-05-09T17:44:14.505Z,19.83
2023-05-09T17:46:16.063Z,19.75
2023-05-09T17:48:18.210Z,19.65
2023-05-09T17:50:20.764Z,19.73
2023-05-09T17:52:22.288Z,19.79
2023-05-09T17:54:24.570Z,19.84
2023-05-09T17:56:26.916Z,19.86
2023-05-09T17:58:28.408Z,19.90
2023-05-09T18:00:30.041Z,19.89
2023-05-09T18:02:31.590Z,19.90
2023-05-09T18:04:34.360Z,19.90
2023-05-09T18:06:36.365Z,19.92
2023-05-09T18:08:38.009Z,19.89
2023-05-09T18:10:40.891Z,19.87
2023-05-09T18:12:45.092Z,19.85
2023-05-09T18:14:46.686Z,19.82
2023-05-09T18:16:48.239Z,19.77
2023-05-09T18:18:49.790Z,19.71
2023-05-09T18:20:51.274Z,19.58
2023-05-09T18:22:54.201Z,19.49
2023-05-09T18:24:55.736Z,19.52
2023-05-09T18:26:57.552Z,19.48
2023-05-09T18:28:59.064Z,19.41
2023-05-09T18:31:01.375Z,19.42
2023-05-09T18:33:04.066Z,19.40
2023-05-09T18:35:06.459Z,19.43
2023-05-09T18:37:07.981Z,19.38
2023-05-09T18:39:11.745Z,19.36
2023-05-09T18:41:13.803Z,19.31
2023-05-09T18:43:16.912Z,19.20
2023-05-09T18:45:18.618Z,18.94
2023-05-09T18:47:20.082Z,18.65
2023-05-09T18:49:22.537Z,18.29
2023-05-09T18:51:25.228Z,17.98
2023-05-09T18:53:26.785Z,17.73
2023-05-09T18:55:28.281Z,17.57
2023-05-09T18:57:29.802Z,17.46
2023-05-09T18:59:31.828Z,17.41
2023-05-09T19:01:33.351Z,17.27
2023-05-09T19:03:34.801Z,17.22
2023-05-09T19:05:36.262Z,17.16
2023-05-09T19:07:38.595Z,17.09
2023-05-09T19:09:40.243Z,17.01
2023-05-09T19:11:41.873Z,16.97
2023-05-09T19:13:48.565Z,16.97
2023-05-09T19:15:50.360Z,16.98
2023-05-09T19:17:51.962Z,16.95
2023-05-09T19:19:53.706Z,16.87
2023-05-09T19:21:55.199Z,16.92
2023-05-09T19:23:56.777Z,16.98
2023-05-09T19:25:58.260Z,17.04
2023-05-09T19:28:00.037Z,17.05
2023-05-09T19:30:01.850Z,17.05
2023-05-09T19:32:03.401Z,17.06
2023-05-09T19:34:05.140Z,17.05
2023-05-09T19:36:06.863Z,16.97
2023-05-09T19:38:08.951Z,16.95
2023-05-09T19:40:11.353Z,16.97
2023-05-09T19:42:12.907Z,17.00
2023-05-09T19:44:14.367Z,16.99
2023-05-09T19:46:16.615Z,16.98
2023-05-09T19:48:18.228Z,16.96
2023-05-09T19:50:19.729Z,16.95
2023-05-09T19:52:21.446Z,16.98
2023-05-09T19:54:27.049Z,17.01
2023-05-09T19:56:28.489Z,17.03
2023-05-09T19:58:29.909Z,17.05
2023-05-09T20:00:32.254Z,17.07
2023-05-09T20:02:34.144Z,17.08
2023-05-09T20:04:36.541Z,17.08
2023-05-09T20:06:38.067Z,17.07
2023-05-09T20:08:39.494Z,17.07
2023-05-09T20:10:40.973Z,17.07
2023-05-09T20:12:42.521Z,17.08
2023-05-09T20:14:44.392Z,17.07
2023-05-09T20:16:46.045Z,17.03
2023-05-09T20:18:48.726Z,16.98
2023-05-09T20:20:51.578Z,16.92
2023-05-09T20:22:53.116Z,16.89
2023-05-09T20:24:54.567Z,16.88
2023-05-09T20:26:56.154Z,16.87
2023-05-09T20:29:01.466Z,16.83
2023-05-09T20:31:03.348Z,16.81
2023-05-09T20:33:04.959Z,16.82
2023-05-09T20:35:07.360Z,16.82
2023-05-09T20:37:08.985Z,16.83
2023-05-09T20:39:11.816Z,16.82
2023-05-09T20:41:13.452Z,16.83
2023-05-09T20:43:15.144Z,16.81
2023-05-09T20:45:16.736Z,16.80
2023-05-09T20:47:18.400Z,16.78
2023-05-09T20:49:19.930Z,16.75
2023-05-09T20:51:21.378Z,16.74
2023-05-09T20:53:26.397Z,16.74
2023-05-09T20:55:27.880Z,16.73
2023-05-09T20:57:29.343Z,16.73
2023-05-09T20:59:30.844Z,16.72
2023-05-09T21:01:36.545Z,16.71
2023-05-09T21:03:38.133Z,16.68
2023-05-09T21:05:39.706Z,16.60
2023-05-09T21:07:41.211Z,16.57
2023-05-09T21:09:42.734Z,16.56
2023-05-09T21:11:45.688Z,16.54
2023-05-09T21:13:47.140Z,16.53
2023-05-09T21:15:50.486Z,16.51
2023-05-09T21:17:51.998Z,16.48
2023-05-09T21:19:53.681Z,16.45
2023-05-09T21:21:55.312Z,16.43
2023-05-09T21:23:56.988Z,16.40
2023-05-09T21:25:58.426Z,16.38
2023-05-09T21:27:59.899Z,16.39
2023-05-09T21:30:01.420Z,16.34
2023-05-09T21:32:02.921Z,16.32
2023-05-09T21:34:09.869Z,16.30
2023-05-09T21:36:11.780Z,16.30
2023-05-09T21:38:13.871Z,16.29
2023-05-09T21:40:15.611Z,16.28
2023-05-09T21:42:17.286Z,16.26
2023-05-09T21:44:18.760Z,16.25
2023-05-09T21:46:20.266Z,16.24
2023-05-09T21:48:21.801Z,16.22
2023-05-09T21:50:23.551Z,16.21
2023-05-09T21:52:25.062Z,16.19
2023-05-09T21:54:26.506Z,16.18
2023-05-09T21:56:28.020Z,16.17
2023-05-09T21:58:29.485Z,16.15
2023-05-09T22:00:30.992Z,16.15
2023-05-09T22:02:34.045Z,16.12
2023-05-09T22:04:35.588Z,16.10
2023-05-09T22:06:37.193Z,16.08
2023-05-09T22:08:38.857Z,16.06
2023-05-09T22:10:40.786Z,16.05
2023-05-09T22:12:42.300Z,16.03
2023-05-09T22:14:55.320Z,16.02
2023-05-09T22:16:57.993Z,15.99
2023-05-09T22:18:59.590Z,15.99
2023-05-09T22:21:01.264Z,15.96
2023-05-09T22:23:02.813Z,15.95
2023-05-09T22:25:05.038Z,15.95
2023-05-09T22:27:06.835Z,15.94
2023-05-09T22:29:08.369Z,15.93
2023-05-09T22:31:10.527Z,15.92
2023-05-09T22:33:12.070Z,15.91
2023-05-09T22:35:13.674Z,15.91
2023-05-09T22:37:15.243Z,15.89
2023-05-09T22:39:16.702Z,15.88
2023-05-09T22:41:18.212Z,15.87
2023-05-09T22:43:20.357Z,15.86
2023-05-09T22:45:22.284Z,15.85
2023-05-09T22:47:23.769Z,15.83
2023-05-09T22:49:25.281Z,15.82
2023-05-09T22:51:27.755Z,15.83
2023-05-09T22:53:29.456Z,15.80
2023-05-09T22:55:30.950Z,15.79
2023-05-09T22:57:32.448Z,15.76
2023-05-09T22:59:34.420Z,15.76
2023-05-09T23:01:35.946Z,15.75
2023-05-09T23:03:37.457Z,15.74
2023-05-09T23:05:38.996Z,15.73
2023-05-09T23:07:40.519Z,15.71
2023-05-09T23:09:42.010Z,15.70
2023-05-09T23:11:43.536Z,15.67
2023-05-09T23:13:44.995Z,15.64
2023-05-09T23:15:49.226Z,15.63
2023-05-09T23:17:50.762Z,15.64
2023-05-09T23:19:52.241Z,15.62
2023-05-09T23:21:53.886Z,15.60
2023-05-09T23:23:55.371Z,15.57
2023-05-09T23:25:56.803Z,15.56
2023-05-09T23:27:58.274Z,15.55
2023-05-09T23:29:59.753Z,15.55
2023-05-09T23:32:01.265Z,15.52
2023-05-09T23:34:02.809Z,15.49
2023-05-09T23:36:04.565Z,15.48
2023-05-09T23:38:06.313Z,15.47
2023-05-09T23:40:08.298Z,15.46
2023-05-09T23:42:09.838Z,15.46
2023-05-09T23:44:12.222Z,15.45
2023-05-09T23:46:13.851Z,15.46
2023-05-09T23:48:15.624Z,15.43
2023-05-09T23:50:17.596Z,15.43
2023-05-09T23:52:19.328Z,15.43
2023-05-09T23:54:21.597Z,15.43
2023-05-09T23:56:23.068Z,15.43
2023-05-09T23:58:24.758Z,15.44
